createdAt,value
2018-02-27T00:00:55.014Z,70.91
2018-02-27T00:02:04.444Z,71.66
2018-02-27T00:03:14.382Z,71.19
2018-02-27T00:04:24.344Z,71.85
2018-02-27T00:05:34.295Z,71.57
2018-02-27T00:06:43.984Z,71.38
2018-02-27T00:07:53.930Z,71.48
2018-02-27T00:09:03.617Z,71.48
2018-02-27T00:10:13.571Z,71.48
2018-02-27T00:11:23.543Z,71.19
2018-02-27T00:12:33.231Z,71.19
2018-02-27T00:13:43.176Z,71.1
2018-02-27T00:14:53.129Z,71.48
2018-02-27T00:16:02.564Z,71.38
2018-02-27T00:17:12.567Z,71.76
2018-02-27T00:18:22.251Z,71.57
2018-02-27T00:19:32.199Z,71.95
2018-02-27T00:20:42.157Z,72.14
2018-02-27T00:21:51.843Z,71.85
2018-02-27T00:23:01.525Z,71.76
2018-02-27T00:24:10.948Z,71.85
2018-02-27T00:25:20.375Z,71.48
2018-02-27T00:26:30.055Z,71.76
2018-02-27T00:27:39.742Z,72.42
2018-02-27T00:28:49.427Z,72.99
2018-02-27T00:29:59.410Z,72.42
2018-02-27T00:31:09.353Z,72.33
2018-02-27T00:32:19.041Z,72.33
2018-02-27T00:33:28.732Z,72.14
2018-02-27T00:34:38.162Z,72.14
2018-02-27T00:35:48.107Z,72.14
2018-02-27T00:36:58.074Z,71.95
2018-02-27T00:38:08.034Z,72.14
2018-02-27T00:39:17.988Z,71.85
2018-02-27T00:40:27.430Z,72.33
2018-02-27T00:41:37.396Z,72.7
2018-02-27T00:42:47.131Z,72.99
2018-02-27T00:43:57.072Z,73.08
2018-02-27T00:45:06.242Z,73.17
2018-02-27T00:46:16.198Z,73.08
2018-02-27T00:47:26.142Z,73.46
2018-02-27T00:48:35.828Z,73.46
2018-02-27T00:49:45.254Z,73.36
2018-02-27T00:50:54.689Z,73.55
2018-02-27T00:52:04.648Z,73.36
2018-02-27T00:53:14.331Z,73.55
2018-02-27T00:54:24.025Z,73.83
2018-02-27T00:55:33.719Z,73.83
2018-02-27T00:56:42.891Z,74.4
2018-02-27T00:57:52.852Z,74.21
2018-02-27T00:59:02.802Z,74.58
2018-02-27T01:00:12.755Z,74.77
2018-02-27T01:01:22.704Z,74.4
2018-02-27T01:02:32.392Z,74.58
2018-02-27T01:03:42.333Z,74.21
2018-02-27T01:04:52.282Z,74.96
2018-02-27T01:06:02.241Z,75.05
2018-02-27T01:07:11.943Z,75.43
2018-02-27T01:08:21.898Z,75.15
2018-02-27T01:09:31.863Z,75.9
2018-02-27T01:10:41.806Z,75.9
2018-02-27T01:11:51.493Z,76.28
2018-02-27T01:13:01.179Z,76.37
2018-02-27T01:14:10.861Z,76.65
2018-02-27T01:15:20.805Z,76.56
2018-02-27T01:16:30.751Z,76.56
2018-02-27T01:17:40.703Z,76.84
2018-02-27T01:18:50.644Z,77.12
2018-02-27T01:20:00.594Z,77.6
2018-02-27T01:21:10.573Z,77.78
2018-02-27T01:22:20.523Z,77.69
2018-02-27T01:23:30.464Z,77.22
2018-02-27T01:24:40.452Z,77.31
2018-02-27T01:25:50.140Z,77.12
2018-02-27T01:27:00.201Z,77.12
2018-02-27T01:28:10.216Z,77.22
2018-02-27T01:29:20.167Z,76.75
2018-02-27T01:30:30.114Z,76.46
2018-02-27T01:31:40.054Z,76.84
2018-02-27T01:32:49.997Z,77.41
2018-02-27T01:33:59.950Z,77.12
2018-02-27T01:35:09.902Z,77.22
2018-02-27T01:36:19.861Z,77.31
2018-02-27T01:37:29.806Z,77.03
2018-02-27T01:38:39.753Z,77.22
2018-02-27T01:39:49.444Z,76.94
2018-02-27T01:40:59.388Z,77.31
2018-02-27T01:42:09.332Z,77.6
2018-02-27T01:43:19.283Z,77.31
2018-02-27T01:44:29.231Z,77.78
2018-02-27T01:45:39.178Z,78.07
2018-02-27T01:46:48.870Z,78.26
2018-02-27T01:47:58.563Z,77.5
2018-02-27T01:49:08.523Z,77.41
2018-02-27T01:50:18.465Z,77.78
2018-02-27T01:51:27.897Z,77.12
2018-02-27T01:52:37.329Z,77.69
2018-02-27T01:53:47.021Z,77.78
2018-02-27T01:54:56.711Z,77.41
2018-02-27T01:56:06.654Z,77.6
2018-02-27T01:57:16.334Z,78.54
2018-02-27T01:58:25.502Z,78.73
2018-02-27T01:59:35.441Z,78.82
2018-02-27T02:00:45.383Z,78.35
2018-02-27T02:01:55.084Z,78.26
2018-02-27T02:03:05.037Z,78.44
2018-02-27T02:04:14.733Z,78.44
2018-02-27T02:05:24.433Z,78.26
2018-02-27T02:06:33.601Z,78.07
2018-02-27T02:07:43.045Z,78.16
2018-02-27T02:08:52.473Z,78.26
2018-02-27T02:10:02.159Z,78.26
2018-02-27T02:11:11.855Z,77.78
2018-02-27T02:12:21.799Z,77.6
2018-02-27T02:13:31.221Z,77.88
2018-02-27T02:14:41.167Z,77.88
2018-02-27T02:15:51.121Z,78.26
2018-02-27T02:17:00.831Z,77.88
2018-02-27T02:18:10.532Z,77.78
2018-02-27T02:19:19.710Z,77.6
2018-02-27T02:20:29.147Z,77.78
2018-02-27T02:21:38.586Z,77.78
2018-02-27T02:22:48.544Z,77.97
2018-02-27T02:23:58.238Z,77.97
2018-02-27T02:25:07.671Z,78.73
2018-02-27T02:26:17.107Z,78.63
2018-02-27T02:27:26.545Z,78.73
2018-02-27T02:28:36.259Z,79.1
2018-02-27T02:29:46.209Z,78.63
2018-02-27T02:30:56.164Z,78.63
2018-02-27T02:32:06.119Z,79.1
2018-02-27T02:33:15.825Z,79.1
2018-02-27T02:34:25.270Z,79.58
2018-02-27T02:35:34.968Z,79.1
2018-02-27T02:36:44.914Z,79.2
2018-02-27T02:37:54.610Z,79.1
2018-02-27T02:39:04.324Z,79.2
2018-02-27T02:40:14.271Z,79.01
2018-02-27T02:41:23.952Z,78.92
2018-02-27T02:42:33.379Z,78.63
2018-02-27T02:43:43.323Z,79.2
2018-02-27T02:44:53.011Z,79.2
2018-02-27T02:46:02.442Z,79.25
2018-02-27T02:47:12.132Z,79.58
2018-02-27T02:48:21.835Z,79.39
2018-02-27T02:49:31.261Z,79.48
2018-02-27T02:50:40.953Z,79.58
2018-02-27T02:51:50.906Z,79.76
2018-02-27T02:53:00.595Z,79.01
2018-02-27T02:54:10.545Z,79.39
2018-02-27T02:55:19.967Z,79.29
2018-02-27T02:56:29.911Z,79.29
2018-02-27T02:57:39.589Z,79.01
2018-02-27T02:58:49.278Z,79.1
2018-02-27T02:59:58.966Z,79.29
2018-02-27T03:01:08.659Z,79.63
2018-02-27T03:02:18.345Z,79.58
2018-02-27T03:03:28.023Z,80
2018-02-27T03:04:37.720Z,80.05
2018-02-27T03:05:47.407Z,79.82
2018-02-27T03:06:57.102Z,79.95
2018-02-27T03:08:06.792Z,79.95
2018-02-27T03:09:16.759Z,79.95
2018-02-27T03:10:26.742Z,79.86
2018-02-27T03:11:36.435Z,79.91
2018-02-27T03:12:46.124Z,80.05
2018-02-27T03:13:55.800Z,79.72
2018-02-27T03:15:05.225Z,79.91
2018-02-27T03:16:15.171Z,79.91
2018-02-27T03:17:24.867Z,80.38
2018-02-27T03:18:34.315Z,80.38
2018-02-27T03:19:44.008Z,80.29
2018-02-27T03:20:53.183Z,80.47
2018-02-27T03:22:02.615Z,80
2018-02-27T03:23:12.565Z,80.29
2018-02-27T03:24:22.524Z,80.76
2018-02-27T03:25:32.482Z,80.66
2018-02-27T03:26:42.166Z,81.6
2018-02-27T03:27:52.142Z,81.98
2018-02-27T03:29:01.833Z,82.45
2018-02-27T03:30:11.772Z,83.2
2018-02-27T03:31:21.733Z,83.3
2018-02-27T03:32:31.701Z,83.86
2018-02-27T03:33:41.647Z,84.24
2018-02-27T03:34:51.348Z,83.96
2018-02-27T03:36:01.284Z,83.86
2018-02-27T03:37:11.256Z,83.96
2018-02-27T03:38:21.202Z,83.96
2018-02-27T03:39:31.158Z,84.24
2018-02-27T03:40:40.846Z,83.77
2018-02-27T03:41:50.794Z,84.15
2018-02-27T03:43:00.237Z,83.77
2018-02-27T03:44:09.671Z,83.11
2018-02-27T03:45:19.094Z,83.2
2018-02-27T03:46:28.783Z,83.11
2018-02-27T03:47:38.731Z,83.2
2018-02-27T03:48:48.443Z,83.11
2018-02-27T03:49:58.390Z,83.02
2018-02-27T03:51:08.349Z,82.83
2018-02-27T03:52:18.047Z,82.54
2018-02-27T03:53:27.998Z,82.45
2018-02-27T03:54:37.694Z,83.02
2018-02-27T03:55:47.386Z,82.92
2018-02-27T03:56:57.332Z,83.39
2018-02-27T03:58:07.275Z,83.39
2018-02-27T03:59:17.232Z,83.39
2018-02-27T04:00:27.184Z,83.02
2018-02-27T04:01:36.613Z,82.92
2018-02-27T04:02:46.552Z,82.36
2018-02-27T04:03:56.234Z,82.54
2018-02-27T04:05:05.924Z,82.54
2018-02-27T04:06:15.359Z,82.54
2018-02-27T04:07:24.790Z,82.07
2018-02-27T04:08:34.472Z,82.26
2018-02-27T04:09:44.421Z,82.17
2018-02-27T04:10:54.106Z,82.07
2018-02-27T04:12:03.538Z,82.36
2018-02-27T04:13:13.225Z,82.64
2018-02-27T04:14:23.170Z,82.83
2018-02-27T04:15:32.867Z,82.83
2018-02-27T04:16:42.392Z,82.54
2018-02-27T04:17:51.776Z,83.02
2018-02-27T04:19:01.460Z,82.92
2018-02-27T04:20:11.415Z,83.02
2018-02-27T04:21:21.101Z,82.36
2018-02-27T04:22:30.785Z,82.83
2018-02-27T04:23:40.736Z,82.73
2018-02-27T04:24:50.445Z,82.64
2018-02-27T04:26:00.136Z,82.54
2018-02-27T04:27:09.828Z,82.54
2018-02-27T04:28:19.776Z,82.36
2018-02-27T04:29:29.777Z,82.73
2018-02-27T04:30:39.780Z,82.54
2018-02-27T04:31:49.465Z,82.83
2018-02-27T04:32:59.145Z,82.64
2018-02-27T04:34:08.829Z,82.83
2018-02-27T04:35:18.777Z,83.2
2018-02-27T04:36:28.718Z,83.68
2018-02-27T04:37:38.408Z,83.58
2018-02-27T04:38:48.089Z,83.39
2018-02-27T04:39:58.036Z,83.11
2018-02-27T04:41:07.799Z,83.58
2018-02-27T04:42:17.741Z,83.2
2018-02-27T04:43:26.911Z,83.58
2018-02-27T04:44:36.873Z,83.3
2018-02-27T04:45:46.560Z,83.2
2018-02-27T04:46:56.503Z,83.58
2018-02-27T04:48:06.192Z,83.58
2018-02-27T04:49:15.621Z,83.2
2018-02-27T04:50:25.315Z,83.49
2018-02-27T04:51:35.013Z,83.49
2018-02-27T04:52:44.446Z,83.49
2018-02-27T04:53:53.889Z,83.2
2018-02-27T04:55:03.832Z,83.2
2018-02-27T04:56:13.504Z,82.83
2018-02-27T04:57:22.933Z,82.83
2018-02-27T04:58:32.881Z,83.58
2018-02-27T04:59:42.575Z,83.49
2018-02-27T05:00:52.573Z,83.49
2018-02-27T05:02:02.521Z,82.92
2018-02-27T05:03:12.486Z,82.83
2018-02-27T05:04:22.441Z,83.39
2018-02-27T05:05:32.379Z,82.92
2018-02-27T05:06:42.330Z,83.02
2018-02-27T05:07:52.292Z,83.49
2018-02-27T05:09:01.992Z,83.34
2018-02-27T05:10:11.421Z,83.25
2018-02-27T05:11:20.853Z,83.06
2018-02-27T05:12:30.794Z,82.59
2018-02-27T05:13:40.520Z,83.34
2018-02-27T05:14:50.220Z,83.06
2018-02-27T05:16:00.175Z,82.87
2018-02-27T05:17:09.610Z,82.21
2018-02-27T05:18:19.293Z,81.27
2018-02-27T05:19:29.300Z,80.9
2018-02-27T05:20:38.743Z,80.71
2018-02-27T05:21:48.693Z,80.52
2018-02-27T05:22:58.122Z,80.42
2018-02-27T05:24:08.082Z,80.52
2018-02-27T05:25:17.513Z,80.14
2018-02-27T05:26:27.459Z,79.58
2018-02-27T05:27:37.423Z,78.54
2018-02-27T05:28:46.849Z,78.35
2018-02-27T05:29:56.792Z,77.97
2018-02-27T05:31:06.737Z,77.12
2018-02-27T05:32:16.430Z,76.94
2018-02-27T05:33:26.115Z,76.56
2018-02-27T05:34:35.836Z,76.37
2018-02-27T05:35:45.306Z,76.18
2018-02-27T05:36:54.992Z,75.71
2018-02-27T05:38:04.992Z,75.9
2018-02-27T05:39:14.941Z,75.71
2018-02-27T05:40:24.890Z,75.34
2018-02-27T05:41:34.838Z,75.05
2018-02-27T05:42:44.269Z,75.24
2018-02-27T05:43:53.970Z,75.15
2018-02-27T05:45:04.171Z,74.96
2018-02-27T05:46:14.120Z,75.43
2018-02-27T05:47:24.072Z,75.34
2018-02-27T05:48:34.024Z,75.24
2018-02-27T05:49:43.978Z,75.9
2018-02-27T05:50:53.939Z,75.52
2018-02-27T05:52:03.899Z,75.15
2018-02-27T05:53:13.845Z,75.34
2018-02-27T05:54:23.800Z,75.05
2018-02-27T05:55:33.747Z,74.96
2018-02-27T05:56:43.694Z,74.96
2018-02-27T05:57:53.656Z,75.05
2018-02-27T05:59:03.334Z,75.34
2018-02-27T06:00:13.291Z,75.43
2018-02-27T06:01:22.984Z,75.05
2018-02-27T06:02:32.433Z,75.34
2018-02-27T06:03:42.492Z,75.24
2018-02-27T06:04:52.194Z,74.77
2018-02-27T06:06:02.205Z,74.77
2018-02-27T06:07:12.175Z,74.58
2018-02-27T06:08:21.871Z,75.34
2018-02-27T06:09:31.837Z,75.15
2018-02-27T06:10:41.536Z,75.9
2018-02-27T06:11:51.489Z,75.9
2018-02-27T06:13:01.195Z,76.09
2018-02-27T06:14:11.241Z,76.18
2018-02-27T06:15:21.181Z,76.84
2018-02-27T06:16:31.127Z,77.41
2018-02-27T06:17:41.077Z,77.03
2018-02-27T06:18:50.776Z,77.78
2018-02-27T06:20:00.475Z,77.5
2018-02-27T06:21:10.174Z,77.69
2018-02-27T06:22:19.608Z,77.69
2018-02-27T06:23:29.298Z,77.6
2018-02-27T06:24:39.254Z,77.5
2018-02-27T06:25:48.692Z,77.97
2018-02-27T06:26:58.643Z,77.6
2018-02-27T06:28:08.583Z,77.12
2018-02-27T06:29:18.015Z,77.41
2018-02-27T06:30:27.452Z,77.12
2018-02-27T06:31:37.408Z,76.56
2018-02-27T06:32:47.352Z,76.56
2018-02-27T06:33:57.043Z,76.65
2018-02-27T06:35:07.283Z,76.84
2018-02-27T06:36:16.981Z,76.09
2018-02-27T06:37:26.963Z,76.37
2018-02-27T06:38:36.932Z,76.18
2018-02-27T06:39:46.880Z,75.99
2018-02-27T06:40:56.584Z,76.37
2018-02-27T06:42:06.266Z,76.65
2018-02-27T06:43:16.222Z,76.56
2018-02-27T06:44:25.665Z,75.99
2018-02-27T06:45:35.917Z,75.62
2018-02-27T06:46:45.631Z,75.99
2018-02-27T06:47:55.586Z,75.52
2018-02-27T06:49:05.552Z,75.71
2018-02-27T06:50:15.462Z,75.99
2018-02-27T06:51:25.419Z,75.43
2018-02-27T06:52:35.124Z,74.87
2018-02-27T06:53:45.068Z,74.68
2018-02-27T06:54:54.759Z,73.93
2018-02-27T06:56:04.725Z,74.11
2018-02-27T06:57:14.422Z,73.74
2018-02-27T06:58:23.865Z,73.65
2018-02-27T06:59:33.812Z,73.74
2018-02-27T07:00:43.760Z,73.17
2018-02-27T07:01:53.481Z,72.89
2018-02-27T07:03:02.898Z,72.89
2018-02-27T07:04:12.793Z,72.8
2018-02-27T07:05:22.510Z,72.99
2018-02-27T07:06:31.680Z,72.99
2018-02-27T07:07:41.624Z,72.23
2018-02-27T07:08:51.582Z,71.38
2018-02-27T07:10:01.034Z,71.19
2018-02-27T07:11:10.458Z,70.91
2018-02-27T07:12:20.422Z,70.91
2018-02-27T07:13:30.170Z,71
2018-02-27T07:14:40.123Z,71.38
2018-02-27T07:15:49.295Z,70.82
2018-02-27T07:16:59.240Z,70.06
2018-02-27T07:18:08.665Z,70.16
2018-02-27T07:19:18.101Z,69.68
2018-02-27T07:20:27.543Z,70.25
2018-02-27T07:21:37.248Z,69.87
2018-02-27T07:22:46.706Z,69.68
2018-02-27T07:23:56.408Z,69.68
2018-02-27T07:25:06.090Z,69.97
2018-02-27T07:26:16.027Z,69.5
2018-02-27T07:27:25.722Z,69.35
2018-02-27T07:28:35.430Z,69.44
2018-02-27T07:29:45.631Z,69.72
2018-02-27T07:30:55.338Z,69.82
2018-02-27T07:32:05.313Z,69.91
2018-02-27T07:33:15.014Z,70.1
2018-02-27T07:34:24.969Z,69.63
2018-02-27T07:35:34.404Z,69.72
2018-02-27T07:36:44.367Z,69.63
2018-02-27T07:37:54.065Z,69.82
2018-02-27T07:39:03.769Z,69.53
2018-02-27T07:40:13.696Z,69.53
2018-02-27T07:41:23.396Z,68.78
2018-02-27T07:42:33.348Z,69.16
2018-02-27T07:43:43.320Z,69.16
2018-02-27T07:44:53.017Z,69.16
2018-02-27T07:46:02.453Z,69.44
2018-02-27T07:47:12.431Z,69.35
2018-02-27T07:48:22.635Z,69.25
2018-02-27T07:49:32.674Z,68.87
2018-02-27T07:50:42.637Z,68.97
2018-02-27T07:51:52.591Z,69.06
2018-02-27T07:53:02.315Z,68.97
2018-02-27T07:54:11.755Z,69.06
2018-02-27T07:55:21.184Z,69.06
2018-02-27T07:56:31.136Z,69.06
2018-02-27T07:57:41.099Z,69.25
2018-02-27T07:58:50.796Z,69.53
2018-02-27T08:00:00.502Z,69.06
2018-02-27T08:01:10.478Z,68.68
2018-02-27T08:02:19.951Z,68.78
2018-02-27T08:03:29.896Z,68.78
2018-02-27T08:04:39.853Z,68.31
2018-02-27T08:05:49.284Z,68.12
2018-02-27T08:06:58.723Z,68.02
2018-02-27T08:08:08.165Z,68.12
2018-02-27T08:09:17.850Z,68.68
2018-02-27T08:10:27.846Z,68.68
2018-02-27T08:11:37.802Z,68.5
2018-02-27T08:12:47.753Z,68.5
2018-02-27T08:13:57.731Z,68.12
2018-02-27T08:15:07.431Z,68.5
2018-02-27T08:16:17.459Z,68.97
2018-02-27T08:17:27.162Z,68.97
2018-02-27T08:18:36.899Z,68.4
2018-02-27T08:19:46.867Z,68.68
2018-02-27T08:20:56.314Z,68.02
2018-02-27T08:22:06.265Z,67.74
2018-02-27T08:23:15.720Z,67.55
2018-02-27T08:24:25.159Z,67.27
2018-02-27T08:25:35.358Z,66.89
2018-02-27T08:26:44.825Z,66.71
2018-02-27T08:27:54.521Z,66.8
2018-02-27T08:29:03.985Z,67.36
2018-02-27T08:30:13.685Z,67.27
2018-02-27T08:31:23.650Z,67.18
2018-02-27T08:32:33.364Z,66.71
2018-02-27T08:33:43.325Z,66.24
2018-02-27T08:34:53.096Z,66.8
2018-02-27T08:36:02.536Z,66.52
2018-02-27T08:37:12.497Z,66.8
2018-02-27T08:38:21.956Z,67.18
2018-02-27T08:39:31.655Z,67.27
2018-02-27T08:40:41.150Z,66.8
2018-02-27T08:41:50.862Z,66.99
2018-02-27T08:43:01.118Z,66.24
2018-02-27T08:44:10.564Z,65.58
2018-02-27T08:45:20.722Z,65.3
2018-02-27T08:46:30.187Z,65.3
2018-02-27T08:47:39.692Z,65.3
2018-02-27T08:48:49.657Z,65.2
2018-02-27T08:49:59.629Z,64.73
2018-02-27T08:51:09.605Z,65.2
2018-02-27T08:52:19.579Z,65.48
2018-02-27T08:53:29.571Z,66.05
2018-02-27T08:54:39.281Z,65.77
2018-02-27T08:55:49.003Z,66.33
2018-02-27T08:56:58.962Z,66.61
2018-02-27T08:58:08.646Z,66.99
2018-02-27T08:59:18.354Z,66.89
2018-02-27T09:00:27.790Z,66.52
2018-02-27T09:01:37.498Z,66.42
2018-02-27T09:02:47.490Z,66.05
2018-02-27T09:03:56.939Z,65.77
2018-02-27T09:05:06.911Z,65.86
2018-02-27T09:06:16.885Z,65.86
2018-02-27T09:07:26.598Z,65.77
2018-02-27T09:08:36.324Z,65.77
2018-02-27T09:09:46.066Z,65.67
2018-02-27T09:10:56.035Z,66.14
2018-02-27T09:12:05.492Z,65.39
2018-02-27T09:13:15.474Z,65.48
2018-02-27T09:14:25.183Z,65.39
2018-02-27T09:15:34.884Z,65.67
2018-02-27T09:16:44.852Z,65.33
2018-02-27T09:17:54.857Z,64.76
2018-02-27T09:19:04.821Z,64.39
2018-02-27T09:20:14.280Z,63.16
2018-02-27T09:21:23.757Z,62.59
2018-02-27T09:22:33.468Z,62.12
2018-02-27T09:23:43.326Z,61.36
2018-02-27T09:24:53.108Z,61.46
2018-02-27T09:26:03.084Z,61.36
2018-02-27T09:27:12.288Z,61.08
2018-02-27T09:28:22.257Z,61.08
2018-02-27T09:29:32.369Z,61.18
2018-02-27T09:30:42.412Z,61.08
2018-02-27T09:31:52.403Z,61.18
2018-02-27T09:33:02.103Z,60.99
2018-02-27T09:34:12.092Z,60.08
2018-02-27T09:35:21.802Z,59.04
2018-02-27T09:36:31.531Z,57.72
2018-02-27T09:37:41.489Z,57.81
2018-02-27T09:38:50.858Z,57.25
2018-02-27T09:40:00.522Z,57.06
2018-02-27T09:41:10.239Z,56.96
2018-02-27T09:42:20.034Z,57.15
2018-02-27T09:43:30.007Z,57.15
2018-02-27T09:44:39.482Z,57.91
2018-02-27T09:45:49.457Z,58
2018-02-27T09:46:59.469Z,57.91
2018-02-27T09:48:09.199Z,57.25
2018-02-27T09:49:19.193Z,57.25
2018-02-27T09:50:28.923Z,56.52
2018-02-27T09:51:38.632Z,56.05
2018-02-27T09:52:48.363Z,54.73
2018-02-27T09:53:58.095Z,54.16
2018-02-27T09:55:07.805Z,54.26
2018-02-27T09:56:17.524Z,53.78
2018-02-27T09:57:27.541Z,52.87
2018-02-27T09:58:36.992Z,51.64
2018-02-27T09:59:46.574Z,51.26
2018-02-27T10:00:56.538Z,51.26
2018-02-27T10:02:06.537Z,51.26
2018-02-27T10:03:16.514Z,51.24
2018-02-27T10:04:26.239Z,51.81
2018-02-27T10:05:35.993Z,52.94
2018-02-27T10:06:45.700Z,53.03
2018-02-27T10:07:55.410Z,52.66
2018-02-27T10:09:05.141Z,52.18
2018-02-27T10:10:14.875Z,51.9
2018-02-27T10:11:24.595Z,51.9
2018-02-27T10:12:33.789Z,50.98
2018-02-27T10:13:43.771Z,50.79
2018-02-27T10:14:53.771Z,50.79
2018-02-27T10:16:03.513Z,50.32
2018-02-27T10:17:13.040Z,50.13
2018-02-27T10:18:22.771Z,49
2018-02-27T10:19:32.235Z,48.62
2018-02-27T10:20:41.697Z,47.99
2018-02-27T10:21:51.687Z,47.42
2018-02-27T10:23:01.658Z,47.04
2018-02-27T10:24:11.406Z,46.75
2018-02-27T10:25:21.131Z,46.66
2018-02-27T10:26:31.127Z,46.47
2018-02-27T10:27:41.209Z,46.28
2018-02-27T10:28:50.669Z,46.09
2018-02-27T10:30:00.400Z,45.9
2018-02-27T10:31:10.139Z,45.81
2018-02-27T10:32:19.904Z,46.37
2018-02-27T10:33:29.891Z,46.09
2018-02-27T10:34:39.622Z,46.47
2018-02-27T10:35:49.684Z,46
2018-02-27T10:36:59.434Z,45.06
2018-02-27T10:38:08.896Z,44.87
2018-02-27T10:39:18.912Z,44.13
2018-02-27T10:40:28.394Z,43.57
2018-02-27T10:41:37.869Z,43.73
2018-02-27T10:42:47.886Z,44.21
2018-02-27T10:43:57.620Z,44.21
2018-02-27T10:45:07.623Z,44.87
2018-02-27T10:46:17.437Z,44.77
2018-02-27T10:47:27.604Z,44.68
2018-02-27T10:48:37.327Z,44.58
2018-02-27T10:49:46.800Z,45.06
2018-02-27T10:50:56.572Z,44.49
2018-02-27T10:52:06.771Z,44.04
2018-02-27T10:53:16.876Z,42.34
2018-02-27T10:54:26.633Z,41.2
2018-02-27T10:55:36.650Z,41.11
2018-02-27T10:56:46.649Z,40.35
2018-02-27T10:57:56.199Z,41.67
2018-02-27T10:59:05.657Z,42.32
2018-02-27T11:00:15.910Z,42.6
2018-02-27T11:01:25.677Z,42.97
2018-02-27T11:02:35.162Z,43.54
2018-02-27T11:03:44.899Z,44.02
2018-02-27T11:04:54.900Z,44.39
2018-02-27T11:06:04.102Z,44.58
2018-02-27T11:07:14.094Z,45.06
2018-02-27T11:08:23.542Z,45.03
2018-02-27T11:09:33.292Z,45.34
2018-02-27T11:10:42.771Z,44.96
2018-02-27T11:11:52.206Z,44.77
2018-02-27T11:13:01.692Z,45.06
2018-02-27T11:14:11.401Z,44.96
2018-02-27T11:15:20.919Z,45.15
2018-02-27T11:16:30.674Z,44.87
2018-02-27T11:17:40.156Z,44.87
2018-02-27T11:18:49.912Z,45.69
2018-02-27T11:19:59.758Z,46.45
2018-02-27T11:21:09.512Z,47.11
2018-02-27T11:22:19.259Z,47.02
2018-02-27T11:23:29.199Z,46.83
2018-02-27T11:24:39.427Z,47.11
2018-02-27T11:25:49.416Z,46.83
2018-02-27T11:26:58.930Z,46.85
2018-02-27T11:28:08.901Z,45.62
2018-02-27T11:29:18.919Z,44.96
2018-02-27T11:30:28.661Z,44.51
2018-02-27T11:31:38.389Z,44.51
2018-02-27T11:32:47.866Z,44.58
2018-02-27T11:33:57.624Z,44.51
2018-02-27T11:35:07.603Z,45.06
2018-02-27T11:36:17.354Z,45.15
2018-02-27T11:37:26.844Z,44.58
2018-02-27T11:38:36.572Z,44.42
2018-02-27T11:39:46.027Z,44.13
2018-02-27T11:40:56.031Z,44.6
2018-02-27T11:42:05.753Z,43.95
2018-02-27T11:43:15.219Z,43.95
2018-02-27T11:44:24.945Z,43.38
2018-02-27T11:45:34.714Z,42.83
2018-02-27T11:46:44.456Z,41.6
2018-02-27T11:47:54.200Z,40.96
2018-02-27T11:49:03.668Z,39.73
2018-02-27T11:50:13.404Z,39.83
2018-02-27T11:51:23.137Z,41.03
2018-02-27T11:52:33.135Z,41.22
2018-02-27T11:53:42.880Z,42.05
2018-02-27T11:54:52.860Z,43
2018-02-27T11:56:02.587Z,43.76
2018-02-27T11:57:12.066Z,44.04
2018-02-27T11:58:21.784Z,44.51
2018-02-27T11:59:31.500Z,44.51
2018-02-27T12:00:41.533Z,43.85
2018-02-27T12:01:51.515Z,43.57
2018-02-27T12:03:01.229Z,43.57
2018-02-27T12:04:11.195Z,43.12
2018-02-27T12:05:20.937Z,42.36
2018-02-27T12:06:30.654Z,41.6
2018-02-27T12:07:40.367Z,40.58
2018-02-27T12:08:50.346Z,39.92
2018-02-27T12:10:00.061Z,41.03
2018-02-27T12:11:09.518Z,41.22
2018-02-27T12:12:19.224Z,41.89
2018-02-27T12:13:28.943Z,42.24
2018-02-27T12:14:38.394Z,42.81
2018-02-27T12:15:48.407Z,42.17
2018-02-27T12:16:57.859Z,41.41
2018-02-27T12:18:07.828Z,40.49
2018-02-27T12:19:17.552Z,40.37
2018-02-27T12:20:27.266Z,41.03
2018-02-27T12:21:36.723Z,41.6
2018-02-27T12:22:46.754Z,42.62
2018-02-27T12:23:56.459Z,42.9
2018-02-27T12:25:06.167Z,43.66
2018-02-27T12:26:15.620Z,43.57
2018-02-27T12:27:25.352Z,44.02
2018-02-27T12:28:35.340Z,44.13
2018-02-27T12:29:45.060Z,44.6
2018-02-27T12:30:54.786Z,44.13
2018-02-27T12:32:04.769Z,44.04
2018-02-27T12:33:14.275Z,44.58
2018-02-27T12:34:24.029Z,44.23
2018-02-27T12:35:33.798Z,43.76
2018-02-27T12:36:43.535Z,43.66
2018-02-27T12:37:53.545Z,43.38
2018-02-27T12:39:03.538Z,43.47
2018-02-27T12:40:13.609Z,43.66
2018-02-27T12:41:23.330Z,44.23
2018-02-27T12:42:33.328Z,44.23
2018-02-27T12:43:43.309Z,44.6
2018-02-27T12:44:53.025Z,44.58
2018-02-27T12:46:03.003Z,45.06
2018-02-27T12:47:13.024Z,45.53
2018-02-27T12:48:22.734Z,45.9
2018-02-27T12:49:32.729Z,46.09
2018-02-27T12:50:42.697Z,46.36
2018-02-27T12:51:52.412Z,47.04
2018-02-27T12:53:02.382Z,47.13
2018-02-27T12:54:11.834Z,46.56
2018-02-27T12:55:21.809Z,46.28
2018-02-27T12:56:31.262Z,46.19
2018-02-27T12:57:40.960Z,45.81
2018-02-27T12:58:50.944Z,45.25
2018-02-27T13:00:00.383Z,44.79
2018-02-27T13:01:09.873Z,44.79
2018-02-27T13:02:19.570Z,44.6
2018-02-27T13:03:29.564Z,44.42
2018-02-27T13:04:39.281Z,45.15
2018-02-27T13:05:49.279Z,45.53
2018-02-27T13:06:59.510Z,46.19
2018-02-27T13:08:09.224Z,46.19
2018-02-27T13:09:19.186Z,46.37
2018-02-27T13:10:29.153Z,46.94
2018-02-27T13:11:39.130Z,46.66
2018-02-27T13:12:48.845Z,47.13
2018-02-27T13:13:58.861Z,46.75
2018-02-27T13:15:08.065Z,47.04
2018-02-27T13:16:17.502Z,46.56
2018-02-27T13:17:26.936Z,47.23
2018-02-27T13:18:36.364Z,47.44
2018-02-27T13:19:46.295Z,46.02
2018-02-27T13:20:56.008Z,47.16
2018-02-27T13:22:05.699Z,47.25
2018-02-27T13:23:15.430Z,46.5
2018-02-27T13:24:25.149Z,45.74
2018-02-27T13:25:34.930Z,45.17
2018-02-27T13:26:44.910Z,44.79
2018-02-27T13:27:54.927Z,44.51
2018-02-27T13:29:04.692Z,44.42
2018-02-27T13:30:14.395Z,44.13
2018-02-27T13:31:24.563Z,43.95
2018-02-27T13:32:34.568Z,43.87
2018-02-27T13:33:44.717Z,44.7
2018-02-27T13:34:54.711Z,45.08
2018-02-27T13:36:04.505Z,45.36
2018-02-27T13:37:14.605Z,47.06
2018-02-27T13:38:24.567Z,47.16
2018-02-27T13:39:34.567Z,47.89
2018-02-27T13:40:44.272Z,47.89
2018-02-27T13:41:54.273Z,48.93
2018-02-27T13:43:04.322Z,48.55
2018-02-27T13:44:14.297Z,49.4
2018-02-27T13:45:24.017Z,50.16
2018-02-27T13:46:34.033Z,49.3
2018-02-27T13:47:43.764Z,48.93
2018-02-27T13:48:53.814Z,48.76
2018-02-27T13:50:11.660Z,48.76
2018-02-27T13:51:21.360Z,48.57
2018-02-27T13:52:31.065Z,48.95
2018-02-27T13:53:40.530Z,49.52
2018-02-27T13:54:50.508Z,49.52
2018-02-27T13:55:59.977Z,49.24
2018-02-27T13:57:10.047Z,49.8
2018-02-27T13:58:19.511Z,49.52
2018-02-27T13:59:29.491Z,49.43
2018-02-27T14:00:39.192Z,48.86
2018-02-27T14:01:48.644Z,48.57
2018-02-27T14:02:58.085Z,48.39
2018-02-27T14:04:07.839Z,48.76
2018-02-27T14:05:17.815Z,49.43
2018-02-27T14:06:27.817Z,48.86
2018-02-27T14:07:37.801Z,48.48
2018-02-27T14:08:47.776Z,48.2
2018-02-27T14:09:57.937Z,47.91
2018-02-27T14:11:07.901Z,48.29
2018-02-27T14:12:18.149Z,48.2
2018-02-27T14:13:28.142Z,48.57
2018-02-27T14:14:38.108Z,48.83
2018-02-27T14:15:47.584Z,50.06
2018-02-27T14:16:57.563Z,51.1
2018-02-27T14:18:07.022Z,51.01
2018-02-27T14:19:16.983Z,51.2
2018-02-27T14:20:26.976Z,51.48
2018-02-27T14:21:36.956Z,52.51
2018-02-27T14:22:46.651Z,52.04
2018-02-27T14:23:56.364Z,52.89
2018-02-27T14:25:06.392Z,53.08
2018-02-27T14:26:16.094Z,53.27
2018-02-27T14:27:26.060Z,52.8
2018-02-27T14:28:35.772Z,52.89
2018-02-27T14:29:45.736Z,52.7
2018-02-27T14:30:55.700Z,52.7
2018-02-27T14:32:05.695Z,53.65
2018-02-27T14:33:15.138Z,54.13
2018-02-27T14:34:24.588Z,53.94
2018-02-27T14:35:34.316Z,53.37
2018-02-27T14:36:44.345Z,53.46
2018-02-27T14:37:54.053Z,53.94
2018-02-27T14:39:03.761Z,53.75
2018-02-27T14:40:13.722Z,53.84
2018-02-27T14:41:23.689Z,54.22
2018-02-27T14:42:33.139Z,53.27
2018-02-27T14:43:43.109Z,54.03
2018-02-27T14:44:53.075Z,53.27
2018-02-27T14:46:02.781Z,53.27
2018-02-27T14:47:12.498Z,54.03
2018-02-27T14:48:22.461Z,53.84
2018-02-27T14:49:31.633Z,53.81
2018-02-27T14:50:41.632Z,54.28
2018-02-27T14:51:50.809Z,55.7
2018-02-27T14:52:59.992Z,55.8
2018-02-27T14:54:09.489Z,55.7
2018-02-27T14:55:19.188Z,55.8
2018-02-27T14:56:29.170Z,56.17
2018-02-27T14:57:38.364Z,57.5
2018-02-27T14:58:48.334Z,57.21
2018-02-27T14:59:58.344Z,56.93
2018-02-27T15:01:08.090Z,57.12
2018-02-27T15:02:18.041Z,56.84
2018-02-27T15:03:28.024Z,57.4